createdAt,value
2018-10-16T00:02:15.693Z,12.70
2018-10-16T00:04:44.255Z,12.77
2018-10-16T00:07:12.866Z,12.30
2018-10-16T00:09:41.375Z,11.30
2018-10-16T00:12:10.419Z,11.63
2018-10-16T00:14:38.977Z,12.90
2018-10-16T00:17:07.504Z,11.90
2018-10-16T00:19:36.063Z,11.93
2018-10-16T00:22:04.657Z,12.00
2018-10-16T00:24:33.291Z,14.00
2018-10-16T00:27:01.897Z,11.40
2018-10-16T00:29:30.480Z,12.97
2018-10-16T00:31:59.040Z,12.67
2018-10-16T00:34:27.576Z,11.50
2018-10-16T00:36:56.124Z,11.20
2018-10-16T00:39:24.739Z,12.30
2018-10-16T00:41:53.488Z,11.93
2018-10-16T00:44:22.257Z,11.70
2018-10-16T00:46:50.892Z,11.90
2018-10-16T00:49:19.543Z,11.67
2018-10-16T00:51:48.124Z,12.27
2018-10-16T00:54:16.718Z,11.83
2018-10-16T00:56:45.203Z,12.00
2018-10-16T00:59:13.735Z,12.20
2018-10-16T01:01:42.215Z,11.00
2018-10-16T01:04:10.793Z,12.53
2018-10-16T01:06:39.316Z,13.57
2018-10-16T01:09:11.745Z,13.80
2018-10-16T01:11:40.706Z,14.30
2018-10-16T01:14:09.401Z,12.83
2018-10-16T01:16:37.925Z,13.47
2018-10-16T01:19:06.762Z,15.07
2018-10-16T01:21:35.265Z,14.73
2018-10-16T01:24:03.806Z,14.03
2018-10-16T01:26:32.278Z,15.20
2018-10-16T01:29:00.814Z,15.10
2018-10-16T01:31:29.329Z,14.03
2018-10-16T01:33:57.834Z,13.73
2018-10-16T01:36:26.449Z,14.27
2018-10-16T01:38:54.985Z,14.57
2018-10-16T01:41:23.514Z,14.20
2018-10-16T01:43:51.986Z,14.13
2018-10-16T01:46:20.493Z,15.13
2018-10-16T01:48:49.028Z,13.60
2018-10-16T01:51:17.552Z,14.70
2018-10-16T01:53:46.076Z,14.40
2018-10-16T01:56:14.620Z,13.23
2018-10-16T01:58:43.129Z,14.87
2018-10-16T02:01:11.653Z,14.00
2018-10-16T02:03:40.230Z,14.70
2018-10-16T02:06:08.766Z,15.17
2018-10-16T02:08:37.288Z,14.20
2018-10-16T02:11:06.003Z,14.13
2018-10-16T02:13:34.532Z,15.00
2018-10-16T02:16:03.061Z,14.33
2018-10-16T02:18:31.563Z,12.90
2018-10-16T02:21:00.061Z,15.27
2018-10-16T02:23:28.543Z,13.47
2018-10-16T02:25:57.069Z,14.33
2018-10-16T02:28:25.762Z,14.97
2018-10-16T02:30:54.256Z,14.20
2018-10-16T02:33:22.749Z,15.60
2018-10-16T02:35:51.229Z,15.97
2018-10-16T02:38:19.747Z,15.17
2018-10-16T02:40:48.277Z,13.57
2018-10-16T02:43:16.735Z,14.77
2018-10-16T02:45:45.288Z,15.20
2018-10-16T02:48:13.738Z,14.97
2018-10-16T02:50:42.246Z,14.30
2018-10-16T02:53:10.798Z,15.77
2018-10-16T02:55:39.284Z,14.70
2018-10-16T02:58:08.635Z,13.40
2018-10-16T03:00:37.141Z,15.57
2018-10-16T03:03:05.888Z,13.80
2018-10-16T03:05:34.405Z,15.20
2018-10-16T03:08:02.872Z,16.20
2018-10-16T03:10:31.427Z,13.93
2018-10-16T03:12:59.887Z,14.20
2018-10-16T03:15:28.377Z,13.67
2018-10-16T03:17:56.833Z,14.50
2018-10-16T03:20:25.371Z,14.90
2018-10-16T03:22:53.911Z,15.43
2018-10-16T03:25:22.420Z,14.63
2018-10-16T03:27:51.440Z,15.23
2018-10-16T03:30:19.951Z,14.30
2018-10-16T03:32:48.894Z,14.03
2018-10-16T03:35:17.421Z,13.63
2018-10-16T03:37:45.956Z,13.77
2018-10-16T03:40:14.491Z,12.80
2018-10-16T03:42:43.313Z,14.20
2018-10-16T03:45:12.870Z,15.17
2018-10-16T03:47:41.482Z,15.53
2018-10-16T03:50:10.556Z,14.63
2018-10-16T03:52:39.114Z,15.70
2018-10-16T03:55:07.952Z,14.67
2018-10-16T03:57:36.545Z,14.90
2018-10-16T04:00:05.634Z,13.97
2018-10-16T04:02:34.290Z,14.80
2018-10-16T04:05:02.822Z,14.77
2018-10-16T04:07:31.360Z,13.77
2018-10-16T04:09:59.935Z,14.60
2018-10-16T04:12:28.458Z,14.20
2018-10-16T04:14:57.016Z,14.70
2018-10-16T04:17:25.561Z,14.40
2018-10-16T04:19:54.108Z,13.60
2018-10-16T04:22:22.688Z,14.07
2018-10-16T04:24:51.212Z,15.00
2018-10-16T04:27:19.784Z,14.57
2018-10-16T04:29:48.319Z,15.40
2018-10-16T04:32:16.890Z,14.90
2018-10-16T04:34:45.424Z,15.37
2018-10-16T04:37:14.136Z,14.97
2018-10-16T04:39:42.740Z,14.57
2018-10-16T04:42:11.387Z,14.17
2018-10-16T04:44:39.891Z,14.70
2018-10-16T04:47:08.407Z,15.20
2018-10-16T04:49:36.942Z,15.00
2018-10-16T04:52:05.517Z,14.57
2018-10-16T04:54:33.972Z,13.77
2018-10-16T04:57:02.433Z,13.80
2018-10-16T04:59:30.855Z,16.07
2018-10-16T05:01:59.347Z,14.87
2018-10-16T05:04:27.754Z,15.43
2018-10-16T05:06:56.259Z,14.30
2018-10-16T05:09:24.705Z,16.50
2018-10-16T05:11:54.581Z,16.17
2018-10-16T05:14:23.144Z,15.13
2018-10-16T05:16:51.777Z,15.83
2018-10-16T05:19:20.186Z,16.00
2018-10-16T05:21:48.649Z,16.13
2018-10-16T05:24:17.129Z,14.97
2018-10-16T05:26:45.641Z,16.50
2018-10-16T05:29:14.099Z,16.53
2018-10-16T05:31:42.583Z,15.50
2018-10-16T05:34:10.996Z,15.70
2018-10-16T05:36:39.522Z,15.00
2018-10-16T05:39:10.755Z,17.20
2018-10-16T05:41:40.045Z,15.60
2018-10-16T05:44:09.060Z,17.33
2018-10-16T05:46:37.656Z,16.23
2018-10-16T05:49:06.236Z,15.83
2018-10-16T05:51:34.652Z,14.90
2018-10-16T05:54:03.121Z,15.60
2018-10-16T05:56:31.627Z,16.50
2018-10-16T05:59:00.090Z,15.67
2018-10-16T06:01:28.566Z,15.30
2018-10-16T06:03:57.020Z,15.40
2018-10-16T06:06:25.457Z,15.47
2018-10-16T06:08:53.886Z,16.93
2018-10-16T06:11:22.514Z,15.30
2018-10-16T06:13:50.972Z,15.63
2018-10-16T06:16:19.618Z,16.03
2018-10-16T06:18:48.138Z,15.27
2018-10-16T06:21:16.697Z,16.03
2018-10-16T06:23:45.371Z,15.93
2018-10-16T06:26:13.995Z,14.87
2018-10-16T06:28:42.454Z,16.20
2018-10-16T06:31:10.912Z,15.47
2018-10-16T06:33:39.399Z,15.50
2018-10-16T06:36:07.916Z,14.70
2018-10-16T06:38:36.350Z,14.30
2018-10-16T06:41:05.453Z,15.47
2018-10-16T06:43:33.728Z,14.97
2018-10-16T06:46:02.266Z,17.10
2018-10-16T06:48:30.989Z,14.70
2018-10-16T06:50:59.326Z,16.63
2018-10-16T06:53:27.817Z,16.40
2018-10-16T06:55:56.716Z,15.07
2018-10-16T06:58:25.240Z,14.70
2018-10-16T07:00:53.733Z,14.80
2018-10-16T07:03:22.330Z,15.90
2018-10-16T07:05:50.885Z,15.90
2018-10-16T07:08:19.539Z,14.10
2018-10-16T07:10:48.059Z,15.20
2018-10-16T07:13:16.469Z,16.77
2018-10-16T07:15:44.986Z,14.50
2018-10-16T07:18:13.472Z,15.97
2018-10-16T07:20:41.932Z,14.97
2018-10-16T07:23:10.359Z,14.67
2018-10-16T07:25:38.836Z,14.33
2018-10-16T07:28:07.462Z,14.40
2018-10-16T07:30:36.132Z,12.80
2018-10-16T07:33:04.649Z,14.03
2018-10-16T07:35:33.137Z,13.10
2018-10-16T07:38:01.679Z,12.53
2018-10-16T07:40:30.193Z,12.33
2018-10-16T07:42:58.564Z,12.80
2018-10-16T07:45:27.082Z,12.70
2018-10-16T07:47:55.530Z,12.13
2018-10-16T07:50:24.049Z,11.90
2018-10-16T07:52:52.596Z,10.97
2018-10-16T07:55:27.997Z,10.30
2018-10-16T07:57:56.376Z,11.10
2018-10-16T08:00:24.859Z,10.47
2018-10-16T08:02:53.404Z,11.70
2018-10-16T08:05:21.956Z,10.07
2018-10-16T08:07:50.556Z,10.10
2018-10-16T08:10:19.187Z,10.03
2018-10-16T08:12:47.661Z,9.70
2018-10-16T08:15:16.237Z,9.77
2018-10-16T08:17:44.872Z,9.03
2018-10-16T08:20:13.381Z,10.00
2018-10-16T08:22:41.942Z,8.53
2018-10-16T08:25:10.388Z,9.23
2018-10-16T08:27:38.918Z,8.57
2018-10-16T08:30:08.914Z,9.43
2018-10-16T08:32:37.482Z,10.10
2018-10-16T08:35:06.032Z,9.90
2018-10-16T08:39:52.292Z,9.27
2018-10-16T08:43:32.760Z,8.50
2018-10-16T08:46:12.903Z,8.80
2018-10-16T08:48:52.593Z,8.30
2018-10-16T08:51:33.417Z,7.40
2018-10-16T08:54:02.154Z,8.30
2018-10-16T08:56:30.963Z,8.03
2018-10-16T08:58:59.675Z,8.00
2018-10-16T09:01:30.092Z,7.90
2018-10-16T09:03:59.085Z,8.33
2018-10-16T09:06:27.633Z,8.33
2018-10-16T09:08:56.173Z,8.80
2018-10-16T09:11:24.660Z,7.73
2018-10-16T09:13:53.335Z,7.70
2018-10-16T09:16:22.402Z,7.30
2018-10-16T09:18:50.987Z,7.10
2018-10-16T09:21:19.575Z,7.00
2018-10-16T09:23:48.148Z,7.40
2018-10-16T09:26:16.731Z,6.63
2018-10-16T09:28:45.460Z,7.73
2018-10-16T09:31:14.094Z,8.30
2018-10-16T09:33:42.672Z,9.60
2018-10-16T09:36:11.231Z,10.07
2018-10-16T09:38:39.933Z,10.80
2018-10-16T09:41:08.705Z,11.33
2018-10-16T09:43:37.222Z,11.10
2018-10-16T09:46:05.799Z,10.50
2018-10-16T09:48:37.197Z,10.50
2018-10-16T09:51:05.872Z,9.80
2018-10-16T09:53:34.437Z,10.10
2018-10-16T09:56:03.164Z,9.57
2018-10-16T09:58:31.816Z,9.40
2018-10-16T10:01:06.010Z,9.60
2018-10-16T10:03:34.725Z,9.20
2018-10-16T10:06:03.457Z,9.03
2018-10-16T10:08:32.141Z,9.40
2018-10-16T10:11:00.666Z,10.40
2018-10-16T10:13:29.326Z,10.70
2018-10-16T10:15:57.915Z,10.37
2018-10-16T10:18:26.645Z,10.27
2018-10-16T10:20:55.140Z,10.77
2018-10-16T10:23:23.751Z,12.10
2018-10-16T10:25:52.329Z,11.20
2018-10-16T10:28:20.861Z,9.73
2018-10-16T10:30:49.433Z,11.90
2018-10-16T10:33:17.974Z,10.60
2018-10-16T10:35:46.583Z,11.93
2018-10-16T10:38:15.197Z,11.57
2018-10-16T10:40:43.836Z,10.80
2018-10-16T10:43:12.312Z,11.23
2018-10-16T10:45:41.249Z,11.50
2018-10-16T10:48:09.760Z,10.63
2018-10-16T10:50:38.622Z,11.27
2018-10-16T10:53:07.009Z,10.67
2018-10-16T10:55:35.504Z,9.83
2018-10-16T10:58:04.140Z,9.63
2018-10-16T11:00:32.574Z,10.50
2018-10-16T11:03:01.120Z,10.20
2018-10-16T11:05:29.542Z,10.63
2018-10-16T11:07:58.029Z,12.00
2018-10-16T11:10:26.460Z,10.63
2018-10-16T11:12:54.949Z,9.90
2018-10-16T11:15:23.431Z,8.37
2018-10-16T11:17:51.929Z,8.93
2018-10-16T11:20:20.358Z,8.90
2018-10-16T11:22:48.886Z,8.60
2018-10-16T11:25:17.531Z,9.30
2018-10-16T11:27:46.127Z,8.20
2018-10-16T11:30:15.748Z,9.60
2018-10-16T11:32:44.323Z,9.30
2018-10-16T11:35:14.116Z,8.40
2018-10-16T11:37:43.202Z,8.83
2018-10-16T11:40:12.187Z,7.90
2018-10-16T11:42:41.387Z,9.37
2018-10-16T11:45:10.091Z,8.60
2018-10-16T11:47:38.936Z,7.80
2018-10-16T11:50:09.201Z,8.40
2018-10-16T11:52:37.704Z,8.30
2018-10-16T11:55:07.156Z,8.80
2018-10-16T11:57:35.891Z,8.53
2018-10-16T12:00:04.727Z,8.33
2018-10-16T12:02:33.405Z,8.80
2018-10-16T12:05:01.925Z,9.00
2018-10-16T12:07:30.347Z,7.97
2018-10-16T12:09:58.810Z,7.80
2018-10-16T12:12:27.484Z,7.70
2018-10-16T12:14:56.111Z,8.60
2018-10-16T12:17:29.967Z,7.13
2018-10-16T12:20:03.113Z,7.80
2018-10-16T12:22:31.697Z,7.97
2018-10-16T12:25:00.231Z,7.80
2018-10-16T12:27:28.672Z,8.43
2018-10-16T12:29:57.249Z,8.27
2018-10-16T12:32:25.755Z,8.10
2018-10-16T12:34:54.241Z,8.63
2018-10-16T12:37:22.704Z,8.10
2018-10-16T12:39:51.306Z,8.37
2018-10-16T12:42:19.970Z,8.17
2018-10-16T12:44:48.525Z,8.33
2018-10-16T12:47:16.930Z,8.20
2018-10-16T12:49:45.397Z,7.60
2018-10-16T12:52:13.922Z,7.37
2018-10-16T12:54:42.578Z,8.33
2018-10-16T12:57:11.202Z,7.63
2018-10-16T12:59:39.724Z,8.13
2018-10-16T13:02:08.296Z,8.23
2018-10-16T13:04:36.750Z,7.93
2018-10-16T13:07:12.142Z,8.00
2018-10-16T13:09:40.753Z,8.30
2018-10-16T13:12:09.195Z,8.67
2018-10-16T13:14:37.655Z,7.80
2018-10-16T13:17:06.114Z,7.50
2018-10-16T13:19:34.589Z,7.40
2018-10-16T13:22:03.227Z,7.83
2018-10-16T13:24:31.749Z,7.20
2018-10-16T13:27:00.184Z,7.23
2018-10-16T13:29:28.753Z,7.47
2018-10-16T13:31:57.144Z,7.70
2018-10-16T13:34:25.573Z,7.30
2018-10-16T13:36:54.168Z,7.17
2018-10-16T13:39:22.726Z,6.93
2018-10-16T13:41:51.174Z,7.53
2018-10-16T13:44:19.644Z,7.17
2018-10-16T13:46:48.337Z,7.90
2018-10-16T13:49:16.868Z,7.80
2018-10-16T13:51:45.420Z,7.33
2018-10-16T13:54:15.195Z,7.23
2018-10-16T13:56:43.660Z,7.27
2018-10-16T13:59:12.204Z,7.70
2018-10-16T14:01:40.799Z,7.10
2018-10-16T14:04:09.377Z,7.17
2018-10-16T14:06:37.813Z,7.23
2018-10-16T14:09:08.128Z,7.67
2018-10-16T14:11:36.740Z,7.57
2018-10-16T14:14:05.773Z,6.80
2018-10-16T14:16:34.272Z,7.60
2018-10-16T14:19:02.847Z,7.30
2018-10-16T14:21:31.409Z,6.80
2018-10-16T14:23:59.887Z,7.20
2018-10-16T14:26:28.478Z,7.07
2018-10-16T14:28:56.992Z,7.30
2018-10-16T14:31:25.667Z,6.90
2018-10-16T14:33:54.303Z,7.93
2018-10-16T14:36:22.920Z,6.93
2018-10-16T14:38:51.652Z,7.13
2018-10-16T14:41:20.121Z,8.33
2018-10-16T14:43:48.668Z,8.40
2018-10-16T14:46:17.284Z,8.03
2018-10-16T14:48:45.840Z,9.13
2018-10-16T14:51:14.333Z,7.57
2018-10-16T14:53:42.930Z,7.10
2018-10-16T14:56:11.558Z,7.93
2018-10-16T14:58:40.036Z,7.43
2018-10-16T15:01:08.717Z,8.70
2018-10-16T15:03:37.152Z,7.90
2018-10-16T15:06:05.761Z,7.87
2018-10-16T15:08:34.324Z,7.67
2018-10-16T15:11:02.854Z,8.00
2018-10-16T15:13:31.394Z,8.20
2018-10-16T15:15:59.999Z,8.50
2018-10-16T15:18:28.507Z,8.00
2018-10-16T15:20:57.000Z,7.50
2018-10-16T15:23:25.442Z,7.93
2018-10-16T15:25:53.952Z,8.00
2018-10-16T15:28:22.481Z,7.87
2018-10-16T15:30:50.960Z,7.27
2018-10-16T15:33:19.479Z,7.90
2018-10-16T15:35:47.992Z,7.60
2018-10-16T15:38:16.849Z,7.20
2018-10-16T15:40:45.402Z,7.40
2018-10-16T15:43:13.854Z,9.43
2018-10-16T15:45:42.363Z,8.20
2018-10-16T15:48:10.984Z,8.50
2018-10-16T15:50:39.582Z,8.63
2018-10-16T15:53:08.022Z,9.63
2018-10-16T15:55:36.497Z,9.00
2018-10-16T15:58:06.011Z,9.03
2018-10-16T16:00:34.445Z,9.20
2018-10-16T16:03:02.941Z,8.27
2018-10-16T16:05:31.340Z,7.87
2018-10-16T16:07:59.859Z,8.40
2018-10-16T16:10:28.392Z,8.70
2018-10-16T16:12:57.025Z,8.97
2018-10-16T16:15:25.450Z,9.40
2018-10-16T16:17:53.946Z,8.73
2018-10-16T16:20:22.419Z,9.13
2018-10-16T16:22:50.897Z,8.70
2018-10-16T16:25:19.418Z,7.00
2018-10-16T16:27:47.923Z,8.40
2018-10-16T16:30:16.913Z,7.57
2018-10-16T16:32:45.408Z,8.00
2018-10-16T16:35:13.943Z,7.80
2018-10-16T16:37:42.476Z,7.67
2018-10-16T16:40:12.412Z,7.27
2018-10-16T16:42:40.812Z,7.90
2018-10-16T16:45:10.309Z,8.30
2018-10-16T16:47:38.796Z,8.43
2018-10-16T16:50:08.870Z,7.90
2018-10-16T16:52:37.650Z,8.87
2018-10-16T16:55:07.937Z,9.53
2018-10-16T16:57:36.569Z,8.37
2018-10-16T17:00:05.199Z,9.97
2018-10-16T17:02:33.761Z,9.07
2018-10-16T17:05:02.319Z,7.97
2018-10-16T17:07:30.906Z,9.47
2018-10-16T17:09:59.422Z,10.40
2018-10-16T17:12:27.976Z,9.63
2018-10-16T17:14:56.621Z,8.50
2018-10-16T17:17:25.107Z,8.97
2018-10-16T17:19:53.763Z,8.20
2018-10-16T17:22:22.287Z,9.27
2018-10-16T17:24:50.976Z,9.57
2018-10-16T17:27:19.395Z,8.90
2018-10-16T17:29:48.032Z,9.50
2018-10-16T17:32:16.857Z,8.90
2018-10-16T17:34:45.359Z,9.20
2018-10-16T17:37:13.840Z,8.77
2018-10-16T17:39:42.306Z,8.60
2018-10-16T17:42:10.809Z,10.23
2018-10-16T17:44:39.535Z,9.43
2018-10-16T17:47:08.026Z,10.67
2018-10-16T17:49:36.448Z,9.97
2018-10-16T17:52:05.068Z,8.83
2018-10-16T17:54:33.485Z,9.50
2018-10-16T17:57:02.096Z,8.50
2018-10-16T17:59:30.516Z,9.40
2018-10-16T18:01:59.132Z,9.97
2018-10-16T18:04:27.692Z,10.70
2018-10-16T18:06:56.249Z,10.87
2018-10-16T18:09:24.712Z,11.03
2018-10-16T18:11:53.310Z,9.83
2018-10-16T18:14:21.729Z,9.83
2018-10-16T18:16:50.306Z,10.60
2018-10-16T18:19:18.808Z,10.10
2018-10-16T18:21:47.349Z,9.53
2018-10-16T18:24:16.795Z,9.63
2018-10-16T18:26:45.407Z,9.83
2018-10-16T18:29:13.857Z,10.20
2018-10-16T18:31:42.331Z,9.80
2018-10-16T18:34:10.892Z,10.10
2018-10-16T18:36:39.549Z,9.30
2018-10-16T18:39:08.914Z,9.53
2018-10-16T18:41:38.094Z,9.20
2018-10-16T18:44:06.787Z,9.13
2018-10-16T18:46:35.368Z,10.30
2018-10-16T18:49:03.789Z,10.53
2018-10-16T18:51:32.226Z,10.40
2018-10-16T18:54:00.820Z,10.80
2018-10-16T18:56:29.444Z,10.57
2018-10-16T18:58:58.003Z,10.70
2018-10-16T19:01:26.492Z,9.90
2018-10-16T19:03:55.113Z,12.20
2018-10-16T19:06:23.740Z,12.20
2018-10-16T19:08:52.309Z,12.90
2018-10-16T19:11:20.786Z,11.53
2018-10-16T19:13:49.444Z,10.60
2018-10-16T19:16:18.131Z,10.93
2018-10-16T19:18:46.772Z,10.77
2018-10-16T19:21:15.488Z,10.80
2018-10-16T19:23:43.817Z,11.13
2018-10-16T19:26:12.277Z,11.20
2018-10-16T19:28:40.783Z,11.53
2018-10-16T19:31:09.268Z,12.60
2018-10-16T19:33:37.708Z,12.07
2018-10-16T19:36:06.313Z,13.30
2018-10-16T19:38:34.789Z,12.97
2018-10-16T19:41:03.216Z,11.97
2018-10-16T19:43:31.819Z,12.13
2018-10-16T19:46:00.316Z,13.47
2018-10-16T19:48:28.813Z,12.30
2018-10-16T19:50:57.392Z,11.90
2018-10-16T19:53:25.901Z,11.90
2018-10-16T19:55:54.419Z,12.30
2018-10-16T19:58:22.928Z,12.30
2018-10-16T20:00:51.446Z,13.40
2018-10-16T20:03:19.948Z,13.00
2018-10-16T20:05:48.460Z,13.00
2018-10-16T20:08:17.317Z,12.30
2018-10-16T20:10:45.772Z,13.47
2018-10-16T20:13:14.288Z,12.97
2018-10-16T20:15:43.008Z,14.63
2018-10-16T20:18:11.503Z,13.33
2018-10-16T20:20:40.002Z,12.90
2018-10-16T20:23:08.593Z,14.10
2018-10-16T20:25:37.084Z,13.97
2018-10-16T20:28:05.618Z,14.17
2018-10-16T20:30:34.132Z,13.40
2018-10-16T20:33:02.637Z,13.40
2018-10-16T20:35:31.091Z,15.17
2018-10-16T20:37:59.681Z,15.33
2018-10-16T20:40:28.140Z,15.57
2018-10-16T20:42:56.659Z,13.77
2018-10-16T20:45:25.135Z,15.20
2018-10-16T20:47:53.567Z,15.37
2018-10-16T20:50:22.131Z,14.07
2018-10-16T20:52:50.611Z,15.20
2018-10-16T20:55:19.108Z,14.33
2018-10-16T20:57:47.606Z,15.53
2018-10-16T21:00:16.081Z,15.10
2018-10-16T21:02:44.545Z,15.33
2018-10-16T21:05:13.198Z,16.07
2018-10-16T21:07:41.437Z,15.50
2018-10-16T21:10:09.890Z,16.13
2018-10-16T21:12:38.323Z,16.00
2018-10-16T21:15:07.944Z,15.60
2018-10-16T21:17:36.379Z,15.07
2018-10-16T21:20:05.356Z,15.60
2018-10-16T21:22:33.818Z,16.47
2018-10-16T21:25:02.433Z,14.80
2018-10-16T21:27:30.894Z,15.90
2018-10-16T21:29:59.306Z,16.13
2018-10-16T21:32:27.748Z,16.20
2018-10-16T21:34:56.247Z,15.43
2018-10-16T21:37:24.694Z,15.73
2018-10-16T21:39:53.186Z,15.53
2018-10-16T21:42:21.646Z,15.90
2018-10-16T21:44:50.289Z,16.27
2018-10-16T21:47:18.661Z,14.77
2018-10-16T21:49:47.238Z,16.07
2018-10-16T21:52:15.675Z,15.43
2018-10-16T21:54:44.101Z,14.20
2018-10-16T21:57:12.472Z,15.23
2018-10-16T21:59:40.969Z,16.50
2018-10-16T22:02:14.628Z,15.33
2018-10-16T22:04:44.722Z,16.37
2018-10-16T22:07:13.126Z,15.63
2018-10-16T22:09:41.551Z,14.77
2018-10-16T22:12:09.916Z,15.73
2018-10-16T22:14:38.328Z,15.70
2018-10-16T22:17:06.891Z,14.80
2018-10-16T22:19:35.264Z,14.43
2018-10-16T22:22:03.680Z,16.00
2018-10-16T22:24:32.047Z,16.70
2018-10-16T22:27:00.450Z,16.10
2018-10-16T22:29:28.861Z,14.80
2018-10-16T22:31:57.453Z,13.00
2018-10-16T22:34:25.872Z,16.20
2018-10-16T22:36:54.355Z,15.00
2018-10-16T22:39:22.829Z,15.20
2018-10-16T22:41:51.212Z,15.07
2018-10-16T22:44:19.636Z,16.00
2018-10-16T22:46:48.049Z,15.37
2018-10-16T22:49:16.516Z,17.33
2018-10-16T22:51:44.962Z,16.50
2018-10-16T22:54:13.413Z,14.50
2018-10-16T22:56:41.908Z,15.13
2018-10-16T22:59:10.564Z,14.40
2018-10-16T23:01:39.086Z,15.90
2018-10-16T23:04:07.482Z,15.43
2018-10-16T23:06:35.857Z,15.60
2018-10-16T23:09:05.280Z,15.77
2018-10-16T23:11:33.784Z,14.40
2018-10-16T23:14:02.142Z,15.27
2018-10-16T23:16:30.572Z,16.00
2018-10-16T23:18:58.996Z,15.10
2018-10-16T23:21:27.380Z,15.00
2018-10-16T23:23:55.787Z,16.37
2018-10-16T23:26:24.260Z,15.93
2018-10-16T23:28:52.703Z,16.00
2018-10-16T23:31:21.286Z,14.87
2018-10-16T23:33:49.736Z,15.13
2018-10-16T23:36:18.164Z,15.40
2018-10-16T23:38:46.717Z,16.43
2018-10-16T23:41:15.277Z,15.30
2018-10-16T23:43:43.802Z,16.37
2018-10-16T23:46:12.342Z,15.70
2018-10-16T23:48:40.870Z,16.07
2018-10-16T23:51:09.333Z,15.97
2018-10-16T23:53:37.821Z,16.30
2018-10-16T23:56:06.431Z,15.83
2018-10-16T23:58:35.120Z,16.60
